Time;durP1;ratioP1;P1;durP2;ratioP2;P2;SDS_P1;SDS_P2;PMS_P1;PMS_P2;Temp;Humidity;BMP_temperature;BMP_pressure;BME280_temperature;BME280_humidity;BME280_pressure;Samples;Min_cycle;Max_cycle;Signal;HPM_P1;HPM_P2
2023/04/13 00:00:42;;;;;;;5.43;3.40;;;5.70;99.90;;;;;;5036450;28;20209;-83
2023/04/13 00:03:11;;;;;;;7.70;3.17;;;5.60;99.90;;;;;;5036507;28;20648;-85
2023/04/13 00:05:38;;;;;;;7.67;3.70;;;5.60;99.90;;;;;;5036648;28;20227;-84
2023/04/13 00:08:07;;;;;;;5.33;3.33;;;5.50;99.90;;;;;;5054058;28;20500;-85
2023/04/13 00:10:40;;;;;;;6.90;3.70;;;5.50;99.90;;;;;;5054175;28;20611;-84
2023/04/13 00:13:08;;;;;;;6.70;3.40;;;5.60;99.90;;;;;;5036187;28;20174;-84
2023/04/13 00:15:35;;;;;;;6.23;3.90;;;5.50;99.90;;;;;;5036379;28;20218;-85
2023/04/13 00:18:02;;;;;;;8.20;3.73;;;5.40;99.90;;;;;;5054073;28;20182;-83
2023/04/13 00:20:28;;;;;;;9.17;3.80;;;5.30;99.90;;;;;;5052707;28;20603;-84
2023/04/13 00:22:54;;;;;;;6.80;3.70;;;5.30;99.90;;;;;;5073327;28;20604;-83
2023/04/13 00:25:20;;;;;;;7.83;3.63;;;5.30;99.90;;;;;;5055642;28;20173;-84
2023/04/13 00:27:45;;;;;;;6.87;3.20;;;5.30;99.90;;;;;;5064768;28;20182;-84
2023/04/13 00:30:13;;;;;;;6.70;3.63;;;5.30;99.90;;;;;;5035964;28;20236;-83
2023/04/13 00:32:41;;;;;;;13.23;4.90;;;5.30;99.90;;;;;;5053922;28;20170;-83
2023/04/13 00:35:08;;;;;;;9.57;3.63;;;5.20;99.90;;;;;;5035849;28;20202;-84
2023/04/13 00:37:34;;;;;;;6.43;3.70;;;5.20;99.90;;;;;;5053842;28;20185;-84
2023/04/13 00:40:00;;;;;;;5.93;3.33;;;5.30;99.90;;;;;;5035921;28;20192;-84
2023/04/13 00:42:26;;;;;;;6.47;3.73;;;5.30;99.90;;;;;;5053814;28;20178;-85
2023/04/13 00:44:52;;;;;;;6.63;3.87;;;5.30;99.90;;;;;;5036049;28;20211;-84
2023/04/13 00:47:27;;;;;;;6.13;3.87;;;5.20;99.90;;;;;;5035889;28;20227;-84
2023/04/13 00:49:55;;;;;;;8.07;4.17;;;5.20;99.90;;;;;;5053729;28;20193;-84
2023/04/13 00:52:21;;;;;;;6.83;3.53;;;5.20;99.90;;;;;;5069086;28;20292;-85
2023/04/13 00:54:51;;;;;;;5.90;3.67;;;5.20;99.90;;;;;;5055772;28;20221;-84
2023/04/13 00:57:19;;;;;;;10.20;3.97;;;5.20;99.90;;;;;;5050537;28;20182;-84
2023/04/13 00:59:48;;;;;;;7.77;3.97;;;5.10;99.90;;;;;;5035687;28;20170;-85
2023/04/13 01:02:15;;;;;;;9.57;4.63;;;5.10;99.90;;;;;;5035310;28;20574;-84
2023/04/13 01:04:44;;;;;;;12.40;4.90;;;5.10;99.90;;;;;;5035879;28;20222;-84
2023/04/13 01:07:27;;;;;;;8.13;3.90;;;5.10;99.90;;;;;;5053225;28;20608;-84
2023/04/13 01:09:59;;;;;;;8.87;4.27;;;5.10;99.90;;;;;;5035677;28;20173;-85
2023/04/13 01:12:38;;;;;;;6.93;4.20;;;5.00;99.90;;;;;;5035664;28;20166;-84
2023/04/13 01:15:10;;;;;;;7.83;4.30;;;5.10;99.90;;;;;;5053409;28;20233;-85
2023/04/13 01:17:38;;;;;;;11.97;4.27;;;5.10;99.90;;;;;;5035593;28;20178;-84
2023/04/13 01:20:15;;;;;;;9.50;3.87;;;5.00;99.90;;;;;;5053541;28;20174;-84
2023/04/13 01:22:55;;;;;;;7.13;3.93;;;5.00;99.90;;;;;;5053461;28;20287;-84
2023/04/13 01:25:36;;;;;;;7.80;4.27;;;4.90;99.90;;;;;;5054942;28;20704;-84
2023/04/13 01:28:15;;;;;;;6.67;3.87;;;4.90;99.90;;;;;;5044042;28;20280;-85
2023/04/13 01:30:42;;;;;;;8.97;4.10;;;4.90;99.90;;;;;;5036557;28;20221;-85
2023/04/13 01:33:09;;;;;;;13.67;4.20;;;4.90;99.90;;;;;;5053665;28;20189;-84
2023/04/13 01:35:37;;;;;;;9.00;4.43;;;4.90;99.90;;;;;;5035346;28;20675;-84
2023/04/13 01:38:03;;;;;;;9.20;4.30;;;4.90;99.90;;;;;;5034890;28;20174;-84
2023/04/13 01:40:30;;;;;;;7.63;4.20;;;4.80;99.90;;;;;;5035161;28;20181;-84
2023/04/13 01:42:56;;;;;;;7.43;4.03;;;4.90;99.90;;;;;;5053093;28;20605;-85
2023/04/13 01:45:28;;;;;;;8.43;4.07;;;4.90;99.90;;;;;;5053268;28;20604;-84
2023/04/13 01:48:14;;;;;;;6.63;3.60;;;4.90;99.90;;;;;;5035326;28;20189;-84
2023/04/13 01:50:43;;;;;;;7.67;3.20;;;4.90;99.90;;;;;;5037016;28;20178;-84
2023/04/13 01:53:16;;;;;;;7.30;4.20;;;4.90;99.90;;;;;;5072783;28;20181;-84
2023/04/13 01:55:43;;;;;;;7.70;3.40;;;4.90;99.90;;;;;;5055228;28;20221;-83
2023/04/13 01:58:12;;;;;;;9.27;3.87;;;4.90;99.90;;;;;;5060643;28;20189;-84
2023/04/13 02:00:39;;;;;;;7.87;4.63;;;4.90;99.90;;;;;;5052853;28;20243;-84
2023/04/13 02:03:07;;;;;;;7.60;3.73;;;4.90;99.90;;;;;;5035248;28;20188;-83
2023/04/13 02:05:36;;;;;;;7.00;4.30;;;4.90;99.90;;;;;;5035113;28;20193;-84
2023/04/13 02:08:04;;;;;;;9.23;4.37;;;4.90;99.90;;;;;;5052725;28;20625;-84
2023/04/13 02:10:31;;;;;;;9.03;4.70;;;4.90;99.90;;;;;;5052950;28;20162;-84
2023/04/13 02:12:57;;;;;;;9.23;4.80;;;4.90;99.90;;;;;;5034985;28;20193;-84
2023/04/13 02:15:23;;;;;;;6.10;4.20;;;5.00;99.90;;;;;;5037840;28;20245;-84
2023/04/13 02:17:49;;;;;;;8.27;5.10;;;4.90;99.90;;;;;;5056474;28;20193;-84
2023/04/13 02:20:15;;;;;;;10.20;4.50;;;4.90;99.90;;;;;;5038374;28;20625;-83
2023/04/13 02:22:42;;;;;;;9.13;4.83;;;4.90;99.90;;;;;;5056631;28;20185;-83
2023/04/13 02:25:10;;;;;;;9.83;4.93;;;5.00;99.90;;;;;;5058463;28;20173;-84
2023/04/13 02:27:37;;;;;;;7.30;4.50;;;4.90;99.90;;;;;;5050597;28;20239;-84
2023/04/13 02:30:05;;;;;;;9.37;4.50;;;4.90;99.90;;;;;;5022541;28;20254;-84
2023/04/13 02:32:31;;;;;;;9.27;4.47;;;4.90;99.90;;;;;;5015149;28;20187;-84
2023/04/13 02:34:58;;;;;;;7.10;4.50;;;4.90;99.90;;;;;;5016462;28;20210;-85
2023/04/13 02:37:25;;;;;;;7.83;4.20;;;4.90;99.90;;;;;;5014891;28;20636;-84
2023/04/13 02:39:50;;;;;;;8.90;4.07;;;4.90;99.90;;;;;;5455516;23;20186;-82
2023/04/13 02:42:16;;;;;;;7.13;4.20;;;4.90;99.90;;;;;;5035108;28;20186;-82
2023/04/13 02:44:42;;;;;;;7.47;4.70;;;4.90;99.90;;;;;;5018572;28;20186;-84
2023/04/13 02:47:08;;;;;;;7.37;4.80;;;4.90;99.90;;;;;;5036088;28;20257;-84
2023/04/13 02:49:34;;;;;;;9.93;4.60;;;4.90;99.90;;;;;;5018360;28;20229;-84
2023/04/13 02:52:00;;;;;;;9.83;5.10;;;4.90;99.90;;;;;;5035998;28;20514;-84
2023/04/13 02:54:26;;;;;;;7.17;4.50;;;4.90;99.90;;;;;;5035981;28;20293;-85
2023/04/13 02:56:51;;;;;;;6.37;4.37;;;4.90;99.90;;;;;;5017891;28;20175;-84
2023/04/13 02:59:17;;;;;;;8.30;4.70;;;4.90;99.90;;;;;;5018056;28;20277;-84
2023/04/13 03:01:44;;;;;;;8.57;4.93;;;4.80;99.90;;;;;;5017960;28;20214;-84
2023/04/13 03:04:10;;;;;;;7.23;4.40;;;4.70;99.90;;;;;;5018189;28;20201;-84
2023/04/13 03:06:36;;;;;;;6.67;4.37;;;4.80;99.90;;;;;;5017909;28;20190;-84
2023/04/13 03:09:02;;;;;;;7.93;5.00;;;4.80;99.90;;;;;;5035782;28;20605;-84
2023/04/13 03:11:28;;;;;;;7.07;4.17;;;4.80;99.90;;;;;;5049168;28;20262;-85
2023/04/13 03:13:57;;;;;;;5.57;3.97;;;4.90;99.90;;;;;;5055594;28;20154;-84
2023/04/13 03:16:23;;;;;;;6.77;3.57;;;4.90;99.90;;;;;;5037556;28;20255;-84
2023/04/13 03:18:50;;;;;;;6.03;3.57;;;4.80;99.90;;;;;;5055453;28;20201;-84
2023/04/13 03:21:16;;;;;;;4.80;3.17;;;4.90;99.90;;;;;;5037437;28;20178;-84
2023/04/13 03:23:42;;;;;;;5.63;3.60;;;4.80;99.90;;;;;;5037152;28;20236;-84
2023/04/13 03:26:08;;;;;;;6.03;3.30;;;4.80;99.90;;;;;;5037282;28;20186;-84
2023/04/13 03:28:34;;;;;;;10.40;3.17;;;4.80;99.90;;;;;;5037233;28;20339;-84
2023/04/13 03:31:00;;;;;;;4.80;3.10;;;4.80;99.90;;;;;;5037037;28;20651;-84
2023/04/13 03:33:26;;;;;;;6.13;3.33;;;4.80;99.90;;;;;;5037284;28;20624;-84
2023/04/13 03:35:51;;;;;;;5.93;3.30;;;4.70;99.90;;;;;;5037217;28;20229;-83
2023/04/13 03:38:17;;;;;;;5.53;3.10;;;4.80;99.90;;;;;;5055137;28;20181;-84
2023/04/13 03:40:43;;;;;;;5.27;3.03;;;4.90;99.90;;;;;;5036289;28;20647;-83
2023/04/13 03:43:09;;;;;;;4.93;2.97;;;4.90;99.90;;;;;;5054814;28;20260;-83
2023/04/13 03:45:35;;;;;;;4.00;2.63;;;4.90;99.90;;;;;;5037140;28;20272;-84
2023/04/13 03:48:00;;;;;;;4.83;2.90;;;4.90;99.90;;;;;;5037052;28;20267;-84
2023/04/13 03:50:27;;;;;;;8.20;3.37;;;4.90;99.90;;;;;;5054684;28;20510;-84
2023/04/13 03:52:54;;;;;;;5.53;3.47;;;5.00;99.90;;;;;;5054752;28;20224;-84
2023/04/13 03:55:20;;;;;;;6.07;2.83;;;4.90;99.90;;;;;;5036493;28;20240;-84
2023/04/13 03:57:46;;;;;;;4.93;2.90;;;4.90;99.90;;;;;;5036714;28;20178;-83
2023/04/13 04:00:13;;;;;;;8.57;2.90;;;4.90;99.90;;;;;;5036450;28;20236;-85
2023/04/13 04:02:40;;;;;;;4.57;2.77;;;4.90;99.90;;;;;;5054535;28;20177;-84
2023/04/13 04:05:06;;;;;;;8.13;3.33;;;4.80;99.90;;;;;;5054639;28;20174;-84
2023/04/13 04:07:31;;;;;;;5.87;2.87;;;4.80;99.90;;;;;;5054474;28;20169;-84
2023/04/13 04:09:57;;;;;;;4.30;2.53;;;4.80;99.90;;;;;;5035983;28;20272;-84
2023/04/13 04:12:23;;;;;;;4.23;2.60;;;4.80;99.90;;;;;;5054312;28;20555;-84
2023/04/13 04:14:48;;;;;;;5.30;2.20;;;4.80;99.90;;;;;;5036389;28;20210;-84
2023/04/13 04:17:14;;;;;;;2.93;1.97;;;4.70;99.90;;;;;;5011152;28;20528;-83
2023/04/13 04:19:40;;;;;;;2.90;1.83;;;4.70;99.90;;;;;;5014784;28;20186;-84
2023/04/13 04:22:06;;;;;;;3.77;2.00;;;4.70;99.90;;;;;;4996743;28;20175;-83
2023/04/13 04:24:32;;;;;;;2.57;1.57;;;4.70;99.90;;;;;;5014142;28;20220;-84
2023/04/13 04:27:01;;;;;;;1.77;1.40;;;4.70;99.90;;;;;;5014231;28;20229;-84
2023/04/13 04:29:33;;;;;;;2.63;1.80;;;4.80;99.90;;;;;;5014401;28;20167;-84
2023/04/13 04:32:00;;;;;;;4.33;1.57;;;4.80;99.90;;;;;;4998118;28;20218;-84
2023/04/13 04:34:26;;;;;;;2.53;1.57;;;4.80;99.90;;;;;;5014480;28;20260;-84
2023/04/13 04:36:52;;;;;;;3.63;1.30;;;4.90;99.90;;;;;;5013927;28;20716;-85
2023/04/13 04:39:22;;;;;;;3.07;1.30;;;5.00;99.90;;;;;;4996670;28;20519;-84
2023/04/13 04:41:53;;;;;;;1.77;1.33;;;5.00;99.90;;;;;;5009272;28;20249;-84
2023/04/13 04:44:29;;;;;;;1.87;1.13;;;5.00;99.90;;;;;;4987838;28;20177;-83
2023/04/13 04:46:55;;;;;;;4.23;1.23;;;5.00;99.90;;;;;;4974028;28;20501;-84
2023/04/13 04:49:21;;;;;;;3.00;1.20;;;5.00;99.90;;;;;;4973788;28;20192;-86
2023/04/13 04:51:51;;;;;;;2.27;1.27;;;5.20;99.90;;;;;;4979900;28;20187;-83
2023/04/13 04:54:18;;;;;;;1.13;1.03;;;5.30;99.90;;;;;;4974723;28;20298;-83
2023/04/13 04:56:45;;;;;;;2.33;1.00;;;5.30;99.90;;;;;;4974891;28;20662;-84
2023/04/13 04:59:11;;;;;;;2.93;1.00;;;5.30;99.90;;;;;;4973868;28;20185;-83
2023/04/13 05:01:37;;;;;;;1.93;1.13;;;5.30;99.90;;;;;;4974853;28;20192;-84
2023/04/13 05:04:03;;;;;;;3.33;1.07;;;5.30;99.90;;;;;;4973921;28;20188;-84
2023/04/13 05:06:32;;;;;;;3.97;1.40;;;5.40;99.90;;;;;;4973760;28;20169;-83
2023/04/13 05:09:03;;;;;;;3.57;0.90;;;5.50;99.90;;;;;;4974889;28;20184;-84
2023/04/13 05:11:29;;;;;;;3.97;1.03;;;5.70;99.90;;;;;;4987150;28;20187;-84
2023/04/13 05:13:55;;;;;;;1.60;0.80;;;5.80;99.90;;;;;;4994308;28;20191;-84
2023/04/13 05:16:22;;;;;;;5.23;1.43;;;5.90;99.90;;;;;;5009299;28;20245;-84
2023/04/13 05:18:48;;;;;;;3.70;1.53;;;6.10;99.90;;;;;;4992944;28;20575;-83
2023/04/13 05:21:15;;;;;;;3.07;1.00;;;6.20;99.90;;;;;;4992819;28;20187;-84
2023/04/13 05:23:42;;;;;;;2.60;1.00;;;6.30;99.90;;;;;;4992423;28;20184;-84
2023/04/13 05:26:10;;;;;;;3.00;0.90;;;6.40;99.90;;;;;;4992763;28;20180;-84
2023/04/13 05:28:36;;;;;;;1.67;1.07;;;6.50;99.90;;;;;;4994184;28;20195;-84
2023/04/13 05:31:03;;;;;;;3.30;0.97;;;6.60;99.90;;;;;;4993979;28;20184;-84
2023/04/13 05:33:29;;;;;;;1.47;0.80;;;6.60;99.90;;;;;;4992856;28;20607;-84
2023/04/13 05:35:55;;;;;;;2.50;1.00;;;6.70;99.90;;;;;;4992827;28;20215;-83
2023/04/13 05:38:21;;;;;;;2.40;0.77;;;6.60;99.90;;;;;;4994466;28;20191;-86
2023/04/13 05:40:47;;;;;;;2.27;0.83;;;6.60;99.90;;;;;;5000749;28;20242;-83
2023/04/13 05:43:14;;;;;;;2.67;0.80;;;6.60;99.90;;;;;;5013665;28;20210;-84
2023/04/13 05:45:40;;;;;;;2.17;0.77;;;6.70;99.90;;;;;;5012489;28;20298;-85
2023/04/13 05:48:05;;;;;;;3.37;0.93;;;6.80;99.90;;;;;;5013953;28;20258;-84
2023/04/13 05:50:31;;;;;;;2.47;0.80;;;6.90;99.90;;;;;;5016991;28;20179;-84
2023/04/13 05:52:58;;;;;;;3.90;0.90;;;6.90;99.90;;;;;;5017654;28;20187;-87
2023/04/13 05:55:26;;;;;;;1.10;0.80;;;6.90;99.90;;;;;;5016323;28;20310;-84
2023/04/13 05:57:52;;;;;;;1.70;0.83;;;6.80;99.90;;;;;;5016239;28;20186;-87
2023/04/13 06:00:20;;;;;;;1.70;0.83;;;6.80;99.90;;;;;;5016007;28;20217;-84
2023/04/13 06:02:49;;;;;;;2.13;0.80;;;6.80;99.90;;;;;;5017265;28;20172;-84
2023/04/13 06:05:17;;;;;;;2.03;0.60;;;6.80;99.90;;;;;;5016116;28;20255;-83
2023/04/13 06:07:43;;;;;;;3.40;0.97;;;6.80;99.90;;;;;;5016058;28;20175;-89
2023/04/13 06:10:11;;;;;;;1.90;0.80;;;6.90;99.90;;;;;;5016037;28;20187;-84
2023/04/13 06:12:38;;;;;;;2.50;0.90;;;7.10;99.90;;;;;;5015672;28;20232;-84
2023/04/13 06:15:05;;;;;;;3.60;1.07;;;7.30;99.90;;;;;;5015879;28;20207;-84
2023/04/13 06:17:31;;;;;;;2.50;0.70;;;7.50;99.90;;;;;;5017489;28;20252;-85
2023/04/13 06:19:56;;;;;;;2.57;0.77;;;7.50;99.90;;;;;;5015557;28;20229;-86
2023/04/13 06:22:22;;;;;;;2.47;0.80;;;7.60;99.90;;;;;;5015514;28;20682;-84
2023/04/13 06:24:51;;;;;;;4.27;0.90;;;7.80;99.90;;;;;;5015178;28;20175;-83
2023/04/13 06:27:17;;;;;;;3.23;1.13;;;7.90;99.90;;;;;;5015592;28;20179;-87
2023/04/13 06:29:44;;;;;;;2.33;0.77;;;7.90;99.90;;;;;;5015839;28;20191;-88
2023/04/13 06:32:10;;;;;;;3.50;0.87;;;7.80;99.90;;;;;;5017118;28;20281;-87
2023/04/13 06:34:36;;;;;;;2.53;0.80;;;7.80;99.90;;;;;;5015883;28;20592;-84
2023/04/13 06:37:02;;;;;;;2.90;0.90;;;7.70;99.90;;;;;;5015798;28;20548;-88
2023/04/13 06:39:28;;;;;;;1.80;0.90;;;7.80;99.90;;;;;;5015710;28;20222;-85
2023/04/13 06:41:55;;;;;;;3.40;0.93;;;7.80;99.90;;;;;;5014898;28;20249;-85
2023/04/13 06:44:24;;;;;;;5.53;0.83;;;7.70;99.90;;;;;;5015857;28;20202;-88
2023/04/13 06:46:50;;;;;;;2.33;0.77;;;7.70;99.90;;;;;;5015978;28;20168;-86
2023/04/13 06:49:15;;;;;;;2.77;0.83;;;7.80;99.90;;;;;;5017159;28;20558;-87
2023/04/13 06:51:41;;;;;;;3.37;0.73;;;7.80;99.90;;;;;;5015865;28;20211;-86
2023/04/13 06:54:09;;;;;;;3.27;0.80;;;7.90;99.90;;;;;;5017081;28;20649;-87
2023/04/13 06:56:34;;;;;;;2.03;0.70;;;7.90;99.90;;;;;;5015841;28;20652;-88
2023/04/13 06:59:01;;;;;;;2.23;0.80;;;7.90;99.90;;;;;;5016787;28;20172;-88
2023/04/13 07:01:29;;;;;;;1.27;0.60;;;7.90;99.90;;;;;;5016456;28;20171;-87
2023/04/13 07:03:55;;;;;;;1.30;0.70;;;8.00;99.90;;;;;;5015982;28;20176;-92
2023/04/13 07:06:21;;;;;;;2.47;0.80;;;8.00;99.90;;;;;;5015840;28;20182;-89
2023/04/13 07:08:47;;;;;;;2.53;0.90;;;7.90;99.90;;;;;;5015255;28;20213;-89
2023/04/13 07:11:13;;;;;;;8.00;1.00;;;7.90;99.90;;;;;;5014754;28;20226;-90
2023/04/13 07:13:45;;;;;;;3.53;0.70;;;8.00;99.90;;;;;;5017103;28;20308;-88
2023/04/13 07:16:11;;;;;;;1.70;0.70;;;8.30;99.90;;;;;;5016663;28;20178;-87
2023/04/13 07:18:37;;;;;;;2.07;0.70;;;8.50;99.90;;;;;;5015581;28;20512;-89
2023/04/13 07:21:03;;;;;;;2.80;0.70;;;8.60;99.90;;;;;;5017162;28;20171;-90
2023/04/13 07:23:42;;;;;;;2.33;0.80;;;8.50;99.90;;;;;;5015999;28;20198;-88
2023/04/13 07:26:13;;;;;;;2.00;0.90;;;8.30;99.90;;;;;;5017055;28;20275;-89
2023/04/13 07:28:39;;;;;;;1.67;0.67;;;8.20;99.90;;;;;;5015496;28;20186;-88
2023/04/13 07:31:05;;;;;;;6.30;0.90;;;8.30;99.90;;;;;;5015375;28;20171;-86
2023/04/13 07:33:31;;;;;;;3.20;0.80;;;8.30;99.90;;;;;;5015638;28;20175;-93
2023/04/13 07:35:57;;;;;;;1.43;0.70;;;8.40;99.90;;;;;;5017349;28;20664;-91
2023/04/13 07:38:23;;;;;;;2.17;0.90;;;8.40;99.90;;;;;;5015840;28;20198;-88
2023/04/13 07:40:48;;;;;;;2.40;0.77;;;8.50;99.90;;;;;;5015175;28;20567;-89
2023/04/13 07:43:14;;;;;;;2.10;0.90;;;8.50;99.90;;;;;;5016061;28;20630;-92
2023/04/13 07:45:40;;;;;;;5.27;1.10;;;8.50;99.90;;;;;;5015716;28;20183;-86
2023/04/13 07:48:06;;;;;;;2.53;0.83;;;8.50;99.90;;;;;;5017085;28;20172;-92
2023/04/13 07:50:32;;;;;;;2.13;0.97;;;8.50;99.90;;;;;;5015266;28;20525;-87
2023/04/13 07:52:57;;;;;;;3.90;0.90;;;8.50;99.90;;;;;;5015988;28;20187;-88
2023/04/13 07:55:25;;;;;;;3.33;1.03;;;8.50;99.90;;;;;;5015505;28;20293;-87
2023/04/13 07:57:51;;;;;;;2.40;0.80;;;8.70;99.90;;;;;;5015045;28;20174;-89
2023/04/13 08:00:19;;;;;;;2.93;1.00;;;8.90;99.90;;;;;;5016834;28;20176;-88
2023/04/13 08:02:44;;;;;;;1.97;0.90;;;9.10;99.90;;;;;;5017189;28;20222;-91
2023/04/13 08:05:11;;;;;;;3.37;1.00;;;9.30;99.90;;;;;;5016422;28;20187;-90
2023/04/13 08:07:36;;;;;;;4.20;1.00;;;9.50;99.90;;;;;;5017148;28;20155;-88
2023/04/13 08:10:03;;;;;;;2.83;1.00;;;9.60;99.90;;;;;;5014866;28;20190;-85
2023/04/13 08:12:28;;;;;;;4.23;0.93;;;9.70;99.90;;;;;;5014317;28;20554;-89
2023/04/13 08:14:54;;;;;;;2.33;0.80;;;9.70;99.90;;;;;;5015929;28;20199;-92
2023/04/13 08:17:20;;;;;;;3.03;0.93;;;9.80;99.90;;;;;;5015836;28;20220;-86
2023/04/13 08:19:46;;;;;;;3.27;1.00;;;9.70;99.90;;;;;;5016384;28;20167;-89
2023/04/13 08:22:12;;;;;;;3.30;0.80;;;9.90;99.90;;;;;;5015226;28;20225;-92
2023/04/13 08:24:46;;;;;;;6.07;1.00;;;10.00;99.90;;;;;;5015424;28;20572;-89
2023/04/13 08:27:11;;;;;;;3.15;0.95;;;9.90;99.90;;;;;;5015564;28;20171;-88
2023/04/13 08:29:37;;;;;;;2.03;0.75;;;10.00;99.90;;;;;;5015583;28;20221;-90
2023/04/13 08:32:03;;;;;;;2.07;0.80;;;10.10;99.90;;;;;;5016072;28;20198;-90
2023/04/13 08:34:29;;;;;;;3.60;1.08;;;10.20;99.90;;;;;;5015084;28;20215;-91
2023/04/13 08:36:56;;;;;;;3.05;0.60;;;10.30;99.90;;;;;;5014777;28;20642;-93
2023/04/13 08:39:22;;;;;;;3.08;0.85;;;10.30;99.90;;;;;;5015065;28;20672;-91
2023/04/13 08:41:48;;;;;;;3.80;0.83;;;10.40;99.90;;;;;;5050781;28;20233;-94
2023/04/13 08:44:16;;;;;;;9.53;1.03;;;10.40;99.90;;;;;;5038294;28;20174;-90
2023/04/13 08:46:45;;;;;;;3.70;0.90;;;10.20;99.90;;;;;;5038124;28;20177;-88
2023/04/13 08:49:11;;;;;;;4.15;0.88;;;10.30;99.90;;;;;;5037754;28;20184;-89
2023/04/13 08:51:38;;;;;;;2.13;0.85;;;10.40;99.90;;;;;;5038052;28;20671;-91
2023/04/13 08:54:05;;;;;;;4.63;0.90;;;10.40;99.90;;;;;;5055785;28;20616;-91
2023/04/13 08:56:32;;;;;;;1.98;1.00;;;10.40;99.90;;;;;;5055538;28;20632;-93
2023/04/13 08:59:08;;;;;;;1.33;0.60;;;10.40;99.90;;;;;;5037758;28;20239;-89
2023/04/13 09:01:36;;;;;;;3.93;0.80;;;10.40;99.90;;;;;;5037342;28;20233;-90
2023/04/13 09:04:10;;;;;;;2.90;0.93;;;10.50;99.90;;;;;;5055294;28;20528;-91
2023/04/13 09:06:39;;;;;;;3.20;0.87;;;10.50;99.90;;;;;;5054994;28;20170;-88
2023/04/13 09:09:09;;;;;;;3.40;0.75;;;10.70;99.90;;;;;;5037179;28;20264;-91
2023/04/13 09:11:35;;;;;;;2.75;0.70;;;10.80;99.90;;;;;;5036903;28;20181;-91
2023/04/13 09:14:01;;;;;;;7.25;1.15;;;10.80;99.90;;;;;;5037824;28;20636;-89
2023/04/13 09:16:38;;;;;;;2.95;0.85;;;10.80;99.90;;;;;;5037378;28;20208;-88
2023/04/13 09:19:04;;;;;;;2.70;0.75;;;10.70;99.90;;;;;;5037718;28;20182;-89
2023/04/13 09:21:38;;;;;;;2.20;0.80;;;10.80;99.90;;;;;;5037427;28;20246;-88
2023/04/13 09:24:05;;;;;;;1.48;0.70;;;11.00;99.90;;;;;;5039824;28;20533;-89
2023/04/13 09:26:47;;;;;;;1.55;0.70;;;11.30;99.90;;;;;;5039931;28;20646;-94
2023/04/13 09:29:17;;;;;;;1.83;0.60;;;11.40;99.90;;;;;;5040231;28;20624;-89
2023/04/13 09:31:45;;;;;;;3.20;0.77;;;11.30;99.90;;;;;;5059164;28;20231;-95
2023/04/13 09:34:11;;;;;;;3.80;1.38;;;11.30;99.90;;;;;;5041605;28;20197;-91
2023/04/13 09:36:37;;;;;;;8.35;1.00;;;11.20;99.90;;;;;;5042035;28;20276;-91
2023/04/13 09:39:04;;;;;;;4.88;0.77;;;11.20;99.90;;;;;;5041395;28;20169;-90
2023/04/13 09:41:33;;;;;;;3.10;0.70;;;11.30;99.90;;;;;;5022242;28;20227;-92
2023/04/13 09:44:17;;;;;;;1.85;0.70;;;11.50;99.90;;;;;;5018803;28;20179;-91
2023/04/13 09:46:55;;;;;;;1.80;0.70;;;11.40;99.90;;;;;;5020420;28;20210;-93
2023/04/13 09:49:21;;;;;;;2.00;0.75;;;11.50;99.90;;;;;;5018098;28;20175;-89
2023/04/13 09:51:47;;;;;;;1.85;0.70;;;11.50;99.90;;;;;;5018860;28;20171;-92
2023/04/13 09:54:20;;;;;;;2.33;0.70;;;11.60;99.90;;;;;;5018224;28;20614;-92
2023/04/13 09:56:51;;;;;;;2.05;0.77;;;11.60;99.90;;;;;;5019103;28;20555;-92
2023/04/13 09:59:18;;;;;;;2.28;0.60;;;11.60;99.90;;;;;;5018943;28;20234;-91
2023/04/13 10:01:44;;;;;;;1.30;0.70;;;11.90;99.90;;;;;;5019094;28;20176;-91
2023/04/13 10:04:11;;;;;;;1.40;0.55;;;12.10;99.90;;;;;;5017897;28;20183;-89
2023/04/13 10:06:45;;;;;;;4.90;0.93;;;12.10;99.90;;;;;;5019069;28;20179;-92
2023/04/13 10:09:11;;;;;;;2.63;0.68;;;12.20;99.90;;;;;;5018656;28;20178;-92
2023/04/13 10:11:49;;;;;;;2.25;0.68;;;12.10;99.90;;;;;;5018019;28;20182;-92
2023/04/13 10:14:23;;;;;;;1.75;0.77;;;12.00;99.90;;;;;;5019838;28;20237;-93
2023/04/13 10:17:14;;;;;;;1.52;0.50;;;12.10;99.90;;;;;;5017794;28;20202;-89
2023/04/13 10:19:47;;;;;;;0.98;0.57;;;12.20;99.90;;;;;;5034403;28;20175;-96
2023/04/13 10:22:14;;;;;;;1.20;0.50;;;12.20;99.90;;;;;;5001530;28;20187;-91
2023/04/13 10:24:40;;;;;;;1.80;0.75;;;12.30;99.90;;;;;;5017192;28;20183;-91
2023/04/13 10:27:18;;;;;;;2.58;0.50;;;12.40;99.90;;;;;;5017632;28;20691;-89
2023/04/13 10:29:46;;;;;;;1.50;0.43;;;12.30;99.90;;;;;;4977122;28;20597;-86
2023/04/13 10:32:25;;;;;;;2.25;0.80;;;12.40;99.90;;;;;;4978766;28;20179;-88
2023/04/13 10:34:52;;;;;;;2.70;0.60;;;12.10;99.90;;;;;;4978200;28;20236;-91
2023/04/13 10:37:23;;;;;;;2.33;0.50;;;12.20;99.90;;;;;;4978743;28;20260;-85
2023/04/13 10:40:03;;;;;;;1.45;0.70;;;12.60;99.90;;;;;;4980008;28;20599;-89
2023/04/13 10:42:41;;;;;;;0.65;0.32;;;12.80;99.90;;;;;;5016079;28;20186;-85
2023/04/13 10:45:19;;;;;;;1.70;0.52;;;12.50;99.90;;;;;;5015995;28;20179;-85
2023/04/13 10:47:45;;;;;;;1.20;0.60;;;12.70;99.90;;;;;;5017195;28;20160;-89
2023/04/13 10:50:18;;;;;;;1.38;0.45;;;12.90;99.90;;;;;;5016872;28;20179;-91
2023/04/13 10:53:06;;;;;;;0.70;0.50;;;13.00;99.90;;;;;;5000430;28;20229;-88
2023/04/13 10:55:39;;;;;;;0.70;0.43;;;12.90;99.90;;;;;;5017051;28;20294;-91
2023/04/13 10:58:16;;;;;;;1.55;0.68;;;12.80;99.90;;;;;;5023464;28;20186;-90
2023/04/13 11:00:43;;;;;;;1.08;0.50;;;12.90;99.90;;;;;;5019593;28;20217;-93
2023/04/13 11:03:09;;;;;;;1.20;0.60;;;13.10;99.90;;;;;;5037000;28;20210;-88
2023/04/13 11:05:35;;;;;;;0.95;0.55;;;13.10;99.90;;;;;;5035612;28;20220;-91
2023/04/13 11:08:01;;;;;;;1.00;0.60;;;13.10;99.90;;;;;;5019683;28;20481;-88
2023/04/13 11:10:28;;;;;;;0.88;0.65;;;13.20;99.90;;;;;;5036605;28;20178;-87
2023/04/13 11:12:55;;;;;;;1.13;0.50;;;13.40;99.90;;;;;;5031106;28;20567;-88
2023/04/13 11:15:23;;;;;;;0.65;0.45;;;13.70;99.90;;;;;;5005693;28;20269;-85
2023/04/13 11:17:51;;;;;;;1.02;0.55;;;14.00;99.90;;;;;;5014567;28;20186;-85
2023/04/13 11:20:17;;;;;;;2.35;0.52;;;14.20;98.80;;;;;;5019010;28;20190;-92
2023/04/13 11:22:44;;;;;;;1.30;0.52;;;14.20;99.90;;;;;;5037088;28;20171;-86
2023/04/13 11:25:10;;;;;;;1.50;0.75;;;14.00;99.90;;;;;;5019301;28;20171;-95
2023/04/13 11:27:36;;;;;;;1.15;0.57;;;13.60;99.60;;;;;;5021237;28;20193;-85
2023/04/13 11:30:06;;;;;;;0.93;0.60;;;13.40;99.90;;;;;;5037793;28;20272;-86
2023/04/13 11:32:32;;;;;;;0.57;0.50;;;13.50;97.30;;;;;;5038926;28;20182;-95
2023/04/13 11:35:09;;;;;;;1.02;0.47;;;13.20;99.50;;;;;;5056009;28;20254;-89
2023/04/13 11:37:39;;;;;;;3.08;0.90;;;13.20;99.90;;;;;;5037685;28;20180;-88
2023/04/13 11:40:16;;;;;;;2.45;0.70;;;13.40;99.80;;;;;;5055267;28;20297;-88
2023/04/13 11:42:47;;;;;;;3.40;0.60;;;13.50;96.70;;;;;;5037662;28;20182;-88
2023/04/13 11:45:17;;;;;;;1.05;0.60;;;13.50;99.90;;;;;;5037721;28;20219;-86
2023/04/13 11:47:44;;;;;;;1.77;0.60;;;14.00;99.50;;;;;;5036852;28;20182;-88
2023/04/13 11:50:11;;;;;;;2.05;0.73;;;14.00;97.60;;;;;;5037577;28;20190;-87
2023/04/13 11:52:38;;;;;;;1.02;0.65;;;13.80;98.70;;;;;;5055186;28;20181;-89
2023/04/13 11:55:06;;;;;;;0.82;0.40;;;13.90;96.60;;;;;;5037684;28;20213;-88
2023/04/13 11:57:32;;;;;;;1.73;0.70;;;13.70;97.60;;;;;;5055869;28;20202;-87
2023/04/13 11:59:58;;;;;;;0.88;0.60;;;13.50;97.30;;;;;;5037953;28;20182;-87
2023/04/13 12:02:28;;;;;;;0.82;0.55;;;13.30;97.20;;;;;;5056843;28;20245;-92
2023/04/13 12:04:55;;;;;;;2.17;0.43;;;12.90;97.30;;;;;;5037553;28;20205;-87
2023/04/13 12:07:21;;;;;;;1.25;0.63;;;12.80;99.00;;;;;;5054946;28;20177;-86
2023/04/13 12:09:50;;;;;;;1.25;0.52;;;12.80;97.70;;;;;;5037031;28;20247;-87
2023/04/13 12:12:23;;;;;;;1.30;0.70;;;12.70;98.70;;;;;;5036496;28;20268;-86
2023/04/13 12:14:57;;;;;;;1.17;0.50;;;12.80;99.50;;;;;;5054614;28;20252;-87
2023/04/13 12:17:34;;;;;;;1.13;0.50;;;12.90;99.90;;;;;;5036651;28;20277;-86
2023/04/13 12:20:02;;;;;;;2.28;0.70;;;13.00;97.60;;;;;;5055141;28;20252;-89
2023/04/13 12:22:38;;;;;;;3.40;0.80;;;12.90;98.30;;;;;;5038113;28;20277;-87
2023/04/13 12:25:18;;;;;;;0.57;0.40;;;12.90;98.30;;;;;;5037494;28;20173;-90
2023/04/13 12:27:44;;;;;;;1.10;0.60;;;12.80;99.60;;;;;;5036188;28;20196;-85
2023/04/13 12:30:11;;;;;;;0.93;0.68;;;13.00;99.20;;;;;;5035927;28;20647;-87
2023/04/13 12:32:46;;;;;;;1.25;0.50;;;12.90;99.30;;;;;;5037136;28;20182;-90
2023/04/13 12:35:13;;;;;;;1.73;0.60;;;12.90;98.50;;;;;;5014437;28;20285;-86
2023/04/13 12:37:45;;;;;;;1.63;0.80;;;12.80;98.70;;;;;;4997852;28;20613;-86
2023/04/13 12:40:17;;;;;;;1.42;0.70;;;12.80;99.10;;;;;;5024911;28;20217;-87
2023/04/13 12:42:44;;;;;;;1.77;0.55;;;13.30;98.60;;;;;;5054527;28;20548;-85
2023/04/13 12:45:13;;;;;;;1.23;0.68;;;13.50;98.20;;;;;;5035738;28;20182;-88
2023/04/13 12:47:40;;;;;;;0.88;0.55;;;13.70;99.20;;;;;;5037883;28;20174;-87
2023/04/13 12:50:07;;;;;;;1.73;0.60;;;13.70;97.10;;;;;;5055017;28;20158;-86
2023/04/13 12:52:35;;;;;;;1.05;0.45;;;13.80;97.10;;;;;;5055713;28;20227;-86
2023/04/13 12:55:01;;;;;;;1.60;0.93;;;14.10;98.50;;;;;;5035234;28;20240;-87
2023/04/13 12:57:28;;;;;;;0.88;0.65;;;14.40;98.90;;;;;;5053721;28;20209;-87